createdAt,value
2018-01-26T00:00:29.361Z,1.67
2018-01-26T00:02:58.502Z,1.57
2018-01-26T00:05:26.934Z,2.00
2018-01-26T00:07:55.246Z,2.17
2018-01-26T00:10:23.566Z,2.80
2018-01-26T00:12:51.990Z,2.37
2018-01-26T00:15:20.457Z,2.47
2018-01-26T00:17:48.756Z,1.83
2018-01-26T00:20:17.085Z,2.53
2018-01-26T00:22:45.424Z,2.40
2018-01-26T00:25:14.070Z,2.50
2018-01-26T00:27:42.388Z,2.50
2018-01-26T00:30:10.681Z,3.17
2018-01-26T00:32:39.758Z,2.90
2018-01-26T00:35:08.053Z,3.10
2018-01-26T00:37:36.378Z,2.90
2018-01-26T00:40:05.510Z,3.00
2018-01-26T00:42:34.113Z,3.70
2018-01-26T00:45:02.414Z,2.80
2018-01-26T00:47:30.714Z,2.70
2018-01-26T00:49:59.015Z,3.17
2018-01-26T00:52:27.376Z,3.10
2018-01-26T00:54:55.706Z,3.30
2018-01-26T00:57:24.028Z,3.80
2018-01-26T00:59:53.076Z,3.20
2018-01-26T01:02:21.367Z,4.00
2018-01-26T01:04:50.046Z,4.40
2018-01-26T01:07:18.338Z,3.60
2018-01-26T01:09:46.622Z,5.23
2018-01-26T01:12:14.952Z,3.10
2018-01-26T01:14:43.263Z,2.87
2018-01-26T01:17:12.396Z,3.30
2018-01-26T01:19:41.457Z,3.60
2018-01-26T01:22:09.788Z,3.83
2018-01-26T01:24:38.130Z,3.60
2018-01-26T01:27:06.466Z,3.83
2018-01-26T01:29:34.817Z,4.00
2018-01-26T01:32:03.148Z,3.90
2018-01-26T01:34:32.250Z,3.80
2018-01-26T01:37:00.581Z,3.40
2018-01-26T01:39:28.889Z,3.70
2018-01-26T01:41:57.227Z,3.40
2018-01-26T01:44:26.312Z,4.53
2018-01-26T01:46:54.589Z,3.03
2018-01-26T01:49:22.922Z,4.03
2018-01-26T01:51:51.974Z,2.60
2018-01-26T01:54:20.386Z,3.20
2018-01-26T01:56:48.717Z,3.10
2018-01-26T01:59:17.770Z,2.67
2018-01-26T02:01:46.059Z,3.60
2018-01-26T02:04:14.340Z,3.03
2018-01-26T02:06:43.112Z,2.50
2018-01-26T02:09:12.191Z,2.33
2018-01-26T02:11:40.526Z,2.53
2018-01-26T02:14:08.834Z,2.60
2018-01-26T02:16:37.253Z,3.47
2018-01-26T02:19:06.386Z,3.13
2018-01-26T02:21:35.470Z,2.80
2018-01-26T02:24:21.394Z,2.50
2018-01-26T02:26:56.342Z,3.60
2018-01-26T02:29:24.696Z,3.37
2018-01-26T02:31:53.034Z,2.93
2018-01-26T02:34:22.133Z,3.87
2018-01-26T02:36:51.218Z,3.07
2018-01-26T02:39:19.954Z,2.07
2018-01-26T02:41:49.216Z,2.63
2018-01-26T02:44:17.527Z,3.17
2018-01-26T02:46:45.862Z,3.00
2018-01-26T02:49:14.915Z,2.40
2018-01-26T02:51:43.535Z,3.23
2018-01-26T02:54:11.858Z,3.10
2018-01-26T02:56:40.172Z,2.80
2018-01-26T02:59:08.526Z,3.83
2018-01-26T03:01:37.752Z,4.03
2018-01-26T03:04:07.043Z,4.00
2018-01-26T03:06:36.106Z,3.80
2018-01-26T03:09:04.416Z,3.50
2018-01-26T03:11:32.822Z,3.47
2018-01-26T03:14:01.120Z,3.07
2018-01-26T03:16:29.447Z,3.23
2018-01-26T03:18:57.787Z,3.80
2018-01-26T03:21:26.082Z,3.90
2018-01-26T03:23:54.372Z,4.60
2018-01-26T03:26:23.074Z,3.83
2018-01-26T03:28:51.362Z,3.93
2018-01-26T03:31:19.695Z,6.00
2018-01-26T03:33:47.986Z,4.63
2018-01-26T03:36:16.346Z,5.03
2018-01-26T03:38:45.442Z,4.37
2018-01-26T03:41:13.742Z,3.80
2018-01-26T03:43:42.074Z,4.20
2018-01-26T03:46:10.710Z,4.97
2018-01-26T03:48:39.028Z,8.40
2018-01-26T03:51:07.368Z,7.53
2018-01-26T03:53:35.745Z,8.17
2018-01-26T03:56:04.059Z,8.73
2018-01-26T03:58:32.599Z,8.03
2018-01-26T04:01:01.695Z,8.67
2018-01-26T04:03:29.990Z,11.27
2018-01-26T04:05:59.086Z,7.93
2018-01-26T04:08:28.209Z,7.37
2018-01-26T04:10:56.579Z,8.37
2018-01-26T04:13:25.198Z,9.93
2018-01-26T04:15:53.499Z,8.60
2018-01-26T04:18:22.571Z,8.90
2018-01-26T04:20:51.687Z,7.87
2018-01-26T04:23:19.984Z,8.03
2018-01-26T04:25:48.313Z,8.70
2018-01-26T04:28:16.978Z,8.57
2018-01-26T04:30:45.290Z,10.02
2018-01-26T04:33:13.599Z,9.20
2018-01-26T04:35:41.913Z,8.60
2018-01-26T04:38:10.237Z,7.93
2018-01-26T04:40:38.555Z,8.03
2018-01-26T04:43:07.626Z,8.73
2018-01-26T04:45:36.070Z,9.90
2018-01-26T04:48:04.360Z,8.53
2018-01-26T04:50:32.696Z,11.43
2018-01-26T04:53:01.111Z,10.97
2018-01-26T04:55:30.171Z,10.60
2018-01-26T04:57:58.529Z,11.00
2018-01-26T05:00:26.919Z,9.80
2018-01-26T05:02:56.297Z,11.23
2018-01-26T05:05:24.697Z,11.40
2018-01-26T05:07:52.995Z,10.87
2018-01-26T05:10:21.294Z,8.50
2018-01-26T05:12:50.375Z,10.53
2018-01-26T05:15:19.031Z,9.60
2018-01-26T05:17:47.423Z,9.57
2018-01-26T05:20:15.754Z,18.03
2018-01-26T05:22:44.050Z,10.17
2018-01-26T05:25:12.421Z,13.40
2018-01-26T05:27:40.832Z,12.57
2018-01-26T05:30:09.191Z,10.30
2018-01-26T05:32:37.552Z,11.57
2018-01-26T05:35:06.647Z,11.13
2018-01-26T05:37:35.779Z,10.40
2018-01-26T05:40:04.883Z,10.20
2018-01-26T05:42:33.323Z,10.50
2018-01-26T05:45:01.648Z,9.57
2018-01-26T05:47:29.968Z,10.17
2018-01-26T05:49:58.686Z,10.13
2018-01-26T05:52:27.102Z,11.70
2018-01-26T05:54:55.426Z,11.30
2018-01-26T05:57:24.505Z,10.47
2018-01-26T05:59:52.811Z,10.80
2018-01-26T06:02:22.199Z,9.90
2018-01-26T06:07:50.131Z,10.03
2018-01-26T06:10:18.440Z,9.27
2018-01-26T06:12:46.894Z,9.60
2018-01-26T06:15:15.202Z,10.17
2018-01-26T06:17:43.526Z,10.77
2018-01-26T06:20:12.622Z,10.80
2018-01-26T06:22:41.711Z,9.83
2018-01-26T06:25:10.446Z,10.30
2018-01-26T06:27:39.514Z,10.23
2018-01-26T06:30:07.922Z,11.77
2018-01-26T06:32:36.228Z,15.27
2018-01-26T06:35:04.558Z,20.03
2018-01-26T06:37:32.990Z,16.50
2018-01-26T06:40:01.295Z,19.17
2018-01-26T06:42:29.642Z,17.30
2018-01-26T06:44:57.970Z,15.23
2018-01-26T06:47:26.280Z,14.30
2018-01-26T06:49:55.783Z,14.53
2018-01-26T06:52:24.854Z,13.63
2018-01-26T06:54:53.212Z,13.27
2018-01-26T06:57:21.501Z,13.07
2018-01-26T06:59:49.936Z,11.20
2018-01-26T07:02:18.278Z,10.47
2018-01-26T07:04:47.374Z,10.20
2018-01-26T07:07:16.598Z,12.20
2018-01-26T07:09:45.682Z,11.17
2018-01-26T07:12:13.998Z,11.50
2018-01-26T07:14:43.647Z,12.10
2018-01-26T07:17:11.976Z,11.17
2018-01-26T07:19:40.323Z,9.30
2018-01-26T07:22:09.496Z,10.30
2018-01-26T07:24:37.835Z,9.93
2018-01-26T07:27:06.202Z,11.70
2018-01-26T07:29:34.662Z,11.10
2018-01-26T07:32:02.956Z,11.07
2018-01-26T07:34:31.253Z,8.40
2018-01-26T07:36:59.575Z,10.97
2018-01-26T07:39:28.042Z,9.30
2018-01-26T07:41:56.393Z,8.47
2018-01-26T07:44:24.712Z,8.23
2018-01-26T07:46:53.017Z,8.20
2018-01-26T07:49:22.096Z,9.43
2018-01-26T07:51:50.739Z,9.53
2018-01-26T07:54:19.088Z,10.87
2018-01-26T07:56:47.401Z,9.90
2018-01-26T07:59:16.513Z,10.67
2018-01-26T08:01:44.854Z,10.57
2018-01-26T08:04:13.273Z,11.67
2018-01-26T08:06:41.670Z,11.60
2018-01-26T08:09:10.030Z,11.40
2018-01-26T08:11:38.467Z,11.80
2018-01-26T08:14:07.568Z,10.60
2018-01-26T08:16:35.945Z,11.67
2018-01-26T08:19:04.250Z,12.50
2018-01-26T08:21:32.710Z,14.93
2018-01-26T08:24:01.030Z,17.30
2018-01-26T08:26:29.409Z,24.70
2018-01-26T08:28:57.683Z,13.90
2018-01-26T08:31:26.004Z,16.93
2018-01-26T08:33:54.618Z,17.93
2018-01-26T08:36:22.970Z,18.50
2018-01-26T08:38:51.318Z,16.60
2018-01-26T08:41:19.647Z,13.70
2018-01-26T08:43:47.946Z,11.23
2018-01-26T08:46:16.299Z,11.23
2018-01-26T08:48:44.606Z,10.30
2018-01-26T08:51:12.922Z,9.20
2018-01-26T08:53:41.230Z,12.00
2018-01-26T08:56:09.622Z,11.63
2018-01-26T08:58:38.306Z,10.00
2018-01-26T09:01:06.610Z,10.20
2018-01-26T09:03:34.996Z,9.60
2018-01-26T09:06:03.298Z,11.60
2018-01-26T09:08:32.358Z,10.77
2018-01-26T09:11:01.003Z,8.70
2018-01-26T09:13:29.373Z,11.50
2018-01-26T09:15:57.688Z,10.20
2018-01-26T09:18:26.772Z,9.57
2018-01-26T09:20:55.090Z,8.20
2018-01-26T09:23:23.466Z,7.97
2018-01-26T09:25:51.771Z,8.10
2018-01-26T09:28:20.079Z,7.10
2018-01-26T09:30:48.390Z,6.33
2018-01-26T09:33:16.677Z,6.33
2018-01-26T09:35:45.256Z,7.03
2018-01-26T09:38:14.335Z,7.63
2018-01-26T09:40:42.762Z,7.53
2018-01-26T09:43:11.070Z,7.07
2018-01-26T09:45:39.394Z,8.17
2018-01-26T09:48:07.916Z,8.10
2018-01-26T09:50:36.198Z,7.80
2018-01-26T09:53:04.521Z,8.37
2018-01-26T09:55:32.868Z,8.60
2018-01-26T09:58:01.166Z,7.90
2018-01-26T10:00:29.868Z,7.17
2018-01-26T10:02:58.170Z,6.43
2018-01-26T10:05:27.249Z,7.67
2018-01-26T10:07:55.938Z,7.03
2018-01-26T10:10:24.236Z,6.30
2018-01-26T10:12:52.623Z,7.50
2018-01-26T10:15:20.926Z,8.37
2018-01-26T10:17:49.277Z,7.07
2018-01-26T10:20:17.591Z,6.60
2018-01-26T10:22:45.922Z,5.43
2018-01-26T10:25:15.024Z,5.40
2018-01-26T10:27:43.326Z,5.80
2018-01-26T10:30:12.406Z,6.20
2018-01-26T10:32:40.715Z,5.70
2018-01-26T10:35:09.832Z,5.50
2018-01-26T10:37:38.619Z,5.57
2018-01-26T10:40:07.773Z,6.47
2018-01-26T10:42:36.208Z,6.43
2018-01-26T10:45:04.517Z,6.73
2018-01-26T10:47:32.829Z,5.33
2018-01-26T10:50:02.202Z,6.50
2018-01-26T10:52:30.497Z,5.90
2018-01-26T10:54:58.915Z,6.67
2018-01-26T10:57:28.019Z,5.27
2018-01-26T10:59:56.410Z,5.73
2018-01-26T11:02:25.842Z,6.17
2018-01-26T11:04:54.147Z,7.50
2018-01-26T11:07:22.450Z,6.07
2018-01-26T11:09:50.754Z,5.33
2018-01-26T11:12:19.042Z,5.40
2018-01-26T11:14:47.456Z,5.80
2018-01-26T11:17:15.755Z,5.10
2018-01-26T11:19:44.050Z,6.30
2018-01-26T11:22:12.352Z,6.93
2018-01-26T11:24:41.477Z,6.27
2018-01-26T11:27:10.850Z,6.23
2018-01-26T11:29:39.182Z,7.40
2018-01-26T11:32:08.529Z,6.43
2018-01-26T11:34:36.871Z,6.00
2018-01-26T11:37:06.158Z,4.80
2018-01-26T11:39:34.816Z,4.10
2018-01-26T11:42:03.110Z,5.20
2018-01-26T11:44:31.429Z,5.60
2018-01-26T11:46:59.845Z,6.00
2018-01-26T11:49:28.138Z,5.80
2018-01-26T11:51:57.802Z,7.10
2018-01-26T11:54:26.106Z,6.47
2018-01-26T11:56:54.446Z,5.20
2018-01-26T11:59:23.579Z,5.67
2018-01-26T12:01:52.028Z,4.47
2018-01-26T12:04:20.494Z,4.33
2018-01-26T12:06:48.819Z,4.87
2018-01-26T12:09:17.107Z,4.37
2018-01-26T12:11:45.547Z,4.70
2018-01-26T12:14:13.858Z,4.90
2018-01-26T12:16:42.608Z,4.43
2018-01-26T12:19:10.980Z,5.47
2018-01-26T12:21:39.279Z,5.27
2018-01-26T12:24:07.635Z,5.73
2018-01-26T12:26:35.966Z,4.60
2018-01-26T12:29:04.346Z,5.20
2018-01-26T12:31:32.654Z,6.03
2018-01-26T12:34:01.759Z,5.10
2018-01-26T12:36:30.053Z,5.10
2018-01-26T12:38:59.144Z,5.80
2018-01-26T12:41:27.783Z,5.87
2018-01-26T12:43:56.238Z,5.50
2018-01-26T12:46:24.600Z,6.00
2018-01-26T12:48:52.896Z,5.50
2018-01-26T12:51:21.203Z,6.37
2018-01-26T12:53:49.859Z,5.43
2018-01-26T12:56:18.215Z,6.53
2018-01-26T12:58:47.274Z,7.00
2018-01-26T13:01:15.629Z,7.00
2018-01-26T13:03:44.785Z,6.37
2018-01-26T13:06:13.149Z,6.97
2018-01-26T13:08:41.486Z,6.63
2018-01-26T13:11:09.814Z,6.73
2018-01-26T13:13:38.914Z,6.43
2018-01-26T13:16:08.012Z,5.97
2018-01-26T13:18:37.403Z,5.93
2018-01-26T13:21:05.720Z,6.57
2018-01-26T13:23:34.043Z,5.43
2018-01-26T13:26:02.392Z,6.70
2018-01-26T13:28:30.701Z,5.33
2018-01-26T13:30:59.851Z,5.20
2018-01-26T13:33:28.211Z,5.83
2018-01-26T13:35:56.551Z,6.00
2018-01-26T13:38:24.902Z,6.10
2018-01-26T13:40:53.291Z,6.80
2018-01-26T13:43:21.742Z,5.47
2018-01-26T13:45:50.159Z,6.27
2018-01-26T13:48:19.262Z,6.20
2018-01-26T13:50:48.351Z,5.30
2018-01-26T13:53:16.642Z,5.33
2018-01-26T13:55:45.006Z,5.23
2018-01-26T13:58:13.299Z,5.60
2018-01-26T14:00:41.659Z,5.83
2018-01-26T14:03:09.969Z,6.80
2018-01-26T14:05:38.292Z,6.33
2018-01-26T14:08:06.724Z,5.97
2018-01-26T14:10:35.918Z,6.13
2018-01-26T14:13:04.214Z,5.60
2018-01-26T14:15:33.787Z,6.00
2018-01-26T14:18:02.052Z,5.83
2018-01-26T14:20:30.646Z,6.40
2018-01-26T14:22:58.973Z,6.27
2018-01-26T14:25:27.318Z,6.23
2018-01-26T14:27:55.668Z,7.57
2018-01-26T14:30:23.969Z,7.60
2018-01-26T14:32:52.312Z,6.47
2018-01-26T14:35:20.631Z,6.63
2018-01-26T14:37:48.935Z,7.43
2018-01-26T14:40:17.249Z,7.27
2018-01-26T14:42:45.612Z,7.70
2018-01-26T14:45:13.973Z,7.50
2018-01-26T14:47:42.317Z,9.15
2018-01-26T14:50:10.622Z,8.70
2018-01-26T14:52:38.993Z,9.00
2018-01-26T14:55:07.502Z,8.03
2018-01-26T14:57:36.695Z,9.25
2018-01-26T15:00:05.024Z,8.93
2018-01-26T15:02:33.333Z,9.87
2018-01-26T15:05:01.679Z,9.80
2018-01-26T15:07:30.780Z,9.40
2018-01-26T15:09:59.166Z,8.73
2018-01-26T15:12:27.547Z,8.10
2018-01-26T15:14:55.980Z,7.60
2018-01-26T15:17:24.437Z,7.37
2018-01-26T15:19:52.766Z,7.20
2018-01-26T15:22:21.246Z,8.00
2018-01-26T15:24:50.313Z,7.63
2018-01-26T15:27:18.666Z,9.17
2018-01-26T15:29:47.005Z,8.63
2018-01-26T15:32:15.341Z,8.27
2018-01-26T15:34:43.991Z,8.43
2018-01-26T15:37:12.413Z,8.27
2018-01-26T15:39:40.886Z,9.10
2018-01-26T15:42:09.318Z,7.67
2018-01-26T15:44:37.759Z,8.70
2018-01-26T15:47:06.148Z,9.40
2018-01-26T15:49:34.462Z,10.60
2018-01-26T15:52:03.544Z,11.90
2018-01-26T15:54:31.843Z,9.87
2018-01-26T15:57:00.216Z,10.40
2018-01-26T15:59:28.861Z,11.63
2018-01-26T16:01:57.962Z,12.27
2018-01-26T16:04:26.284Z,11.20
2018-01-26T16:06:54.675Z,10.97
2018-01-26T16:09:22.979Z,10.20
2018-01-26T16:11:51.407Z,9.87
2018-01-26T16:14:19.770Z,10.10
2018-01-26T16:16:48.097Z,10.23
2018-01-26T16:19:16.443Z,10.80
2018-01-26T16:21:44.772Z,10.30
2018-01-26T16:24:13.485Z,9.43
2018-01-26T16:26:41.799Z,8.90
2018-01-26T16:29:10.910Z,9.00
2018-01-26T16:31:39.250Z,9.70
2018-01-26T16:34:07.594Z,9.90
2018-01-26T16:36:37.010Z,10.00
2018-01-26T16:39:05.455Z,10.60
2018-01-26T16:41:33.795Z,9.87
2018-01-26T16:44:02.176Z,11.40
2018-01-26T16:46:31.445Z,10.00
2018-01-26T16:48:59.846Z,10.50
2018-01-26T16:51:28.254Z,13.37
2018-01-26T16:53:56.601Z,11.73
2018-01-26T16:56:24.999Z,11.50
2018-01-26T16:58:53.307Z,11.13
2018-01-26T17:01:21.646Z,9.50
2018-01-26T17:03:50.716Z,12.13
2018-01-26T17:06:19.031Z,9.87
2018-01-26T17:08:48.207Z,11.23
2018-01-26T17:11:16.579Z,11.27
2018-01-26T17:13:45.007Z,10.07
2018-01-26T17:16:13.362Z,10.20
2018-01-26T17:18:41.722Z,10.63
2018-01-26T17:21:10.822Z,9.47
2018-01-26T17:23:39.954Z,10.13
2018-01-26T17:26:08.596Z,9.30
2018-01-26T17:28:37.682Z,9.47
2018-01-26T17:31:06.026Z,10.60
2018-01-26T17:33:35.094Z,9.00
2018-01-26T17:36:03.422Z,11.73
2018-01-26T17:38:32.845Z,10.40
2018-01-26T17:41:02.001Z,9.17
2018-01-26T17:43:30.718Z,10.70
2018-01-26T17:45:59.306Z,9.20
2018-01-26T17:48:27.657Z,9.67
2018-01-26T17:50:56.017Z,9.90
2018-01-26T17:53:24.432Z,11.20
2018-01-26T17:55:53.590Z,12.73
2018-01-26T17:58:21.921Z,10.17
2018-01-26T18:00:50.462Z,11.33
2018-01-26T18:03:18.811Z,13.73
2018-01-26T18:05:47.911Z,12.27
2018-01-26T18:08:16.568Z,10.77
2018-01-26T18:10:44.918Z,10.40
2018-01-26T18:13:13.989Z,9.90
2018-01-26T18:15:42.322Z,11.13
2018-01-26T18:18:11.514Z,10.40
2018-01-26T18:20:40.725Z,10.80
2018-01-26T18:23:09.310Z,13.30
2018-01-26T18:25:37.702Z,14.90
2018-01-26T18:28:06.213Z,11.73
2018-01-26T18:30:34.582Z,12.43
2018-01-26T18:33:03.025Z,11.17
2018-01-26T18:35:31.422Z,12.60
2018-01-26T18:37:59.830Z,11.93
2018-01-26T18:40:28.247Z,11.20
2018-01-26T18:42:56.703Z,9.50
2018-01-26T18:45:28.144Z,9.90
2018-01-26T18:47:57.533Z,11.73
2018-01-26T18:50:26.163Z,10.73
2018-01-26T18:52:54.522Z,11.07
2018-01-26T18:55:22.950Z,9.80
2018-01-26T18:57:51.295Z,11.10
2018-01-26T19:00:19.640Z,11.43
2018-01-26T19:02:47.949Z,11.00
2018-01-26T19:05:16.310Z,10.23
2018-01-26T19:07:45.430Z,10.20
2018-01-26T19:10:13.728Z,11.37
2018-01-26T19:12:42.605Z,11.53
2018-01-26T19:15:12.042Z,11.00
2018-01-26T19:17:41.703Z,10.77
2018-01-26T19:20:10.474Z,11.37
2018-01-26T19:22:38.868Z,11.50
2018-01-26T19:25:08.080Z,12.13
2018-01-26T19:27:36.410Z,12.93
2018-01-26T19:30:04.711Z,11.10
2018-01-26T19:32:33.351Z,12.63
2018-01-26T19:35:01.677Z,11.97
2018-01-26T19:37:30.139Z,12.10
2018-01-26T19:39:58.450Z,12.93
2018-01-26T19:42:26.796Z,11.80
2018-01-26T19:44:56.195Z,12.53
2018-01-26T19:47:25.477Z,11.10
2018-01-26T19:49:53.967Z,12.23
2018-01-26T19:52:22.293Z,9.87
2018-01-26T19:54:50.743Z,11.23
2018-01-26T19:57:19.131Z,12.70
2018-01-26T19:59:47.474Z,10.17
2018-01-26T20:02:15.786Z,11.03
2018-01-26T20:04:50.507Z,13.10
2018-01-26T20:07:30.115Z,9.30
2018-01-26T20:09:58.429Z,9.20
2018-01-26T20:12:27.046Z,9.57
2018-01-26T20:14:55.401Z,9.40
2018-01-26T20:17:24.082Z,9.60
2018-01-26T20:19:52.441Z,9.57
2018-01-26T20:22:21.638Z,10.10
2018-01-26T20:24:50.030Z,10.60
2018-01-26T20:27:18.427Z,10.87
2018-01-26T20:29:46.734Z,11.03
2018-01-26T20:32:19.866Z,11.07
2018-01-26T20:34:48.205Z,12.37
2018-01-26T20:37:16.538Z,12.90
2018-01-26T20:39:45.102Z,11.33
2018-01-26T20:42:14.177Z,11.63
2018-01-26T20:44:42.479Z,11.70
2018-01-26T20:47:10.852Z,12.37
2018-01-26T20:49:39.295Z,10.47
2018-01-26T20:52:08.385Z,11.43
2018-01-26T20:54:36.735Z,11.63
2018-01-26T20:57:05.413Z,11.70
2018-01-26T20:59:33.743Z,12.10
2018-01-26T21:02:02.058Z,13.30
2018-01-26T21:04:30.478Z,11.57
2018-01-26T21:06:58.860Z,12.47
2018-01-26T21:09:27.934Z,13.50
2018-01-26T21:11:56.258Z,13.23
2018-01-26T21:14:25.408Z,12.30
2018-01-26T21:16:53.698Z,13.30
2018-01-26T21:19:22.034Z,12.80
2018-01-26T21:21:50.357Z,13.83
2018-01-26T21:24:19.443Z,14.90
2018-01-26T21:26:48.529Z,12.13
2018-01-26T21:29:16.843Z,13.30
2018-01-26T21:31:45.914Z,14.13
2018-01-26T21:34:14.314Z,13.87
2018-01-26T21:36:42.606Z,15.67
2018-01-26T21:39:10.930Z,15.13
2018-01-26T21:41:40.070Z,12.63
2018-01-26T21:44:08.456Z,11.23
2018-01-26T21:46:36.781Z,11.10
2018-01-26T21:49:05.148Z,10.67
2018-01-26T21:51:33.481Z,11.03
2018-01-26T21:54:01.810Z,12.87
2018-01-26T21:56:30.231Z,13.10
2018-01-26T21:58:58.574Z,13.83
2018-01-26T22:01:26.896Z,12.20
2018-01-26T22:03:55.223Z,14.40
2018-01-26T22:06:30.085Z,13.07
2018-01-26T22:08:58.423Z,12.63
2018-01-26T22:11:26.777Z,14.77
2018-01-26T22:13:56.012Z,13.03
2018-01-26T22:16:24.403Z,13.00
2018-01-26T22:18:52.822Z,18.00
2018-01-26T22:21:21.145Z,23.43
2018-01-26T22:23:49.456Z,18.40
2018-01-26T22:26:18.540Z,22.50
2018-01-26T22:28:46.838Z,18.33
2018-01-26T22:31:15.152Z,18.17
2018-01-26T22:33:44.315Z,15.93
2018-01-26T22:36:12.625Z,17.83
2018-01-26T22:38:40.917Z,18.47
2018-01-26T22:41:09.228Z,21.70
2018-01-26T22:43:38.373Z,22.37
2018-01-26T22:46:06.706Z,20.27
2018-01-26T22:48:35.621Z,21.97
2018-01-26T22:51:04.023Z,21.87
2018-01-26T22:53:32.326Z,24.23
2018-01-26T22:56:01.402Z,21.70
2018-01-26T22:58:29.723Z,23.47
2018-01-26T23:00:58.782Z,22.20
2018-01-26T23:03:27.102Z,22.40
2018-01-26T23:05:55.426Z,21.73
2018-01-26T23:08:23.810Z,24.13
2018-01-26T23:10:52.123Z,22.33
2018-01-26T23:13:20.469Z,23.13
2018-01-26T23:18:15.088Z,23.27
2018-01-26T23:20:43.444Z,23.40
2018-01-26T23:23:11.843Z,23.27
2018-01-26T23:25:40.302Z,26.17
2018-01-26T23:28:09.155Z,27.33
2018-01-26T23:30:37.531Z,36.50
2018-01-26T23:33:06.225Z,29.00
2018-01-26T23:35:34.579Z,28.50
2018-01-26T23:38:02.954Z,26.90
2018-01-26T23:40:32.090Z,26.40
2018-01-26T23:43:00.466Z,25.70
2018-01-26T23:45:29.577Z,26.57
2018-01-26T23:47:58.687Z,25.43
2018-01-26T23:50:27.091Z,23.73
2018-01-26T23:52:55.485Z,24.10
2018-01-26T23:55:23.794Z,22.10
2018-01-26T23:57:52.100Z,22.33
